sensor_id;sensor_type;location;lat;lon;timestamp;P1;durP1;ratioP1;P2;durP2;ratioP2
70545;SDS011;58098;51.680;5.134;2024-02-28T00:00:36;22.87;;;11.90;;
70545;SDS011;58098;51.680;5.134;2024-02-28T00:03:01;21.03;;;13.57;;
70545;SDS011;58098;51.680;5.134;2024-02-28T00:05:27;21.93;;;13.47;;
70545;SDS011;58098;51.680;5.134;2024-02-28T00:07:52;20.40;;;12.13;;
70545;SDS011;58098;51.680;5.134;2024-02-28T00:10:18;22.08;;;12.82;;
70545;SDS011;58098;51.680;5.134;2024-02-28T00:12:43;19.30;;;12.60;;
70545;SDS011;58098;51.680;5.134;2024-02-28T00:15:08;21.63;;;13.67;;
70545;SDS011;58098;51.680;5.134;2024-02-28T00:17:37;18.77;;;12.30;;
70545;SDS011;58098;51.680;5.134;2024-02-28T00:20:04;24.93;;;14.30;;
70545;SDS011;58098;51.680;5.134;2024-02-28T00:22:29;25.38;;;13.68;;
70545;SDS011;58098;51.680;5.134;2024-02-28T00:24:55;24.70;;;14.77;;
70545;SDS011;58098;51.680;5.134;2024-02-28T00:27:20;23.83;;;15.40;;
70545;SDS011;58098;51.680;5.134;2024-02-28T00:29:46;24.33;;;14.75;;
70545;SDS011;58098;51.680;5.134;2024-02-28T00:32:11;22.60;;;14.60;;
70545;SDS011;58098;51.680;5.134;2024-02-28T00:34:37;27.63;;;15.37;;
70545;SDS011;58098;51.680;5.134;2024-02-28T00:37:02;23.90;;;14.67;;
70545;SDS011;58098;51.680;5.134;2024-02-28T00:39:27;24.90;;;14.10;;
70545;SDS011;58098;51.680;5.134;2024-02-28T00:41:53;24.47;;;15.67;;
70545;SDS011;58098;51.680;5.134;2024-02-28T00:44:18;25.33;;;14.60;;
70545;SDS011;58098;51.680;5.134;2024-02-28T00:46:43;24.30;;;15.70;;
70545;SDS011;58098;51.680;5.134;2024-02-28T00:49:08;24.83;;;15.37;;
70545;SDS011;58098;51.680;5.134;2024-02-28T00:51:34;30.67;;;15.67;;
70545;SDS011;58098;51.680;5.134;2024-02-28T00:54:01;29.38;;;13.85;;
70545;SDS011;58098;51.680;5.134;2024-02-28T00:56:26;24.63;;;14.50;;
70545;SDS011;58098;51.680;5.134;2024-02-28T00:58:52;23.17;;;14.43;;
70545;SDS011;58098;51.680;5.134;2024-02-28T01:01:18;22.13;;;14.30;;
70545;SDS011;58098;51.680;5.134;2024-02-28T01:03:43;26.47;;;15.83;;
70545;SDS011;58098;51.680;5.134;2024-02-28T01:06:09;25.40;;;15.93;;
70545;SDS011;58098;51.680;5.134;2024-02-28T01:08:34;24.23;;;14.70;;
70545;SDS011;58098;51.680;5.134;2024-02-28T01:10:59;27.37;;;16.33;;
70545;SDS011;58098;51.680;5.134;2024-02-28T01:13:25;29.80;;;17.80;;
70545;SDS011;58098;51.680;5.134;2024-02-28T01:15:50;32.10;;;17.63;;
70545;SDS011;58098;51.680;5.134;2024-02-28T01:18:15;30.23;;;16.77;;
70545;SDS011;58098;51.680;5.134;2024-02-28T01:20:41;31.30;;;17.67;;
70545;SDS011;58098;51.680;5.134;2024-02-28T01:23:06;36.08;;;18.10;;
70545;SDS011;58098;51.680;5.134;2024-02-28T01:25:31;33.77;;;17.83;;
70545;SDS011;58098;51.680;5.134;2024-02-28T01:27:57;33.10;;;18.00;;
70545;SDS011;58098;51.680;5.134;2024-02-28T01:30:25;33.75;;;18.45;;
70545;SDS011;58098;51.680;5.134;2024-02-28T01:32:50;33.33;;;16.33;;
70545;SDS011;58098;51.680;5.134;2024-02-28T01:35:16;27.93;;;17.23;;
70545;SDS011;58098;51.680;5.134;2024-02-28T01:37:41;31.10;;;17.57;;
70545;SDS011;58098;51.680;5.134;2024-02-28T01:40:07;30.77;;;17.93;;
70545;SDS011;58098;51.680;5.134;2024-02-28T01:42:32;29.75;;;17.38;;
70545;SDS011;58098;51.680;5.134;2024-02-28T01:44:58;28.67;;;17.57;;
70545;SDS011;58098;51.680;5.134;2024-02-28T01:47:23;29.70;;;17.50;;
70545;SDS011;58098;51.680;5.134;2024-02-28T01:49:49;30.02;;;18.05;;
70545;SDS011;58098;51.680;5.134;2024-02-28T01:52:15;34.05;;;18.50;;
70545;SDS011;58098;51.680;5.134;2024-02-28T01:54:42;31.30;;;18.17;;
70545;SDS011;58098;51.680;5.134;2024-02-28T01:57:08;29.67;;;18.13;;
70545;SDS011;58098;51.680;5.134;2024-02-28T01:59:33;30.90;;;18.33;;
70545;SDS011;58098;51.680;5.134;2024-02-28T02:01:59;29.90;;;18.63;;
70545;SDS011;58098;51.680;5.134;2024-02-28T02:04:25;30.08;;;16.77;;
70545;SDS011;58098;51.680;5.134;2024-02-28T02:06:50;30.30;;;17.97;;
70545;SDS011;58098;51.680;5.134;2024-02-28T02:09:19;29.63;;;16.85;;
70545;SDS011;58098;51.680;5.134;2024-02-28T02:11:44;30.17;;;15.77;;
70545;SDS011;58098;51.680;5.134;2024-02-28T02:14:10;27.87;;;17.50;;
70545;SDS011;58098;51.680;5.134;2024-02-28T02:16:35;26.40;;;16.80;;
70545;SDS011;58098;51.680;5.134;2024-02-28T02:19:00;29.00;;;17.42;;
70545;SDS011;58098;51.680;5.134;2024-02-28T02:21:30;28.07;;;17.40;;
70545;SDS011;58098;51.680;5.134;2024-02-28T02:23:56;30.80;;;17.02;;
70545;SDS011;58098;51.680;5.134;2024-02-28T02:26:21;28.07;;;16.67;;
70545;SDS011;58098;51.680;5.134;2024-02-28T02:28:47;32.97;;;17.50;;
70545;SDS011;58098;51.680;5.134;2024-02-28T02:31:13;33.17;;;18.10;;
70545;SDS011;58098;51.680;5.134;2024-02-28T02:33:38;31.02;;;18.02;;
70545;SDS011;58098;51.680;5.134;2024-02-28T02:36:04;31.87;;;17.37;;
70545;SDS011;58098;51.680;5.134;2024-02-28T02:38:29;28.47;;;17.63;;
70545;SDS011;58098;51.680;5.134;2024-02-28T02:40:55;31.77;;;18.52;;
70545;SDS011;58098;51.680;5.134;2024-02-28T02:43:20;35.37;;;20.40;;
70545;SDS011;58098;51.680;5.134;2024-02-28T02:45:45;34.97;;;19.80;;
70545;SDS011;58098;51.680;5.134;2024-02-28T02:48:11;30.70;;;18.67;;
70545;SDS011;58098;51.680;5.134;2024-02-28T02:50:36;31.53;;;19.50;;
70545;SDS011;58098;51.680;5.134;2024-02-28T02:53:02;33.50;;;18.07;;
70545;SDS011;58098;51.680;5.134;2024-02-28T02:55:28;24.52;;;14.90;;
70545;SDS011;58098;51.680;5.134;2024-02-28T02:57:53;26.80;;;15.70;;
70545;SDS011;58098;51.680;5.134;2024-02-28T03:00:19;24.87;;;14.90;;
70545;SDS011;58098;51.680;5.134;2024-02-28T03:02:45;24.13;;;16.27;;
70545;SDS011;58098;51.680;5.134;2024-02-28T03:05:10;26.53;;;15.80;;
70545;SDS011;58098;51.680;5.134;2024-02-28T03:07:36;24.57;;;15.00;;
70545;SDS011;58098;51.680;5.134;2024-02-28T03:10:01;26.03;;;15.87;;
70545;SDS011;58098;51.680;5.134;2024-02-28T03:12:28;27.75;;;15.85;;
70545;SDS011;58098;51.680;5.134;2024-02-28T03:14:53;27.27;;;16.30;;
70545;SDS011;58098;51.680;5.134;2024-02-28T03:17:18;30.27;;;16.90;;
70545;SDS011;58098;51.680;5.134;2024-02-28T03:19:44;30.97;;;17.90;;
70545;SDS011;58098;51.680;5.134;2024-02-28T03:22:09;30.73;;;17.70;;
70545;SDS011;58098;51.680;5.134;2024-02-28T03:24:34;32.33;;;17.00;;
70545;SDS011;58098;51.680;5.134;2024-02-28T03:27:00;28.33;;;16.80;;
70545;SDS011;58098;51.680;5.134;2024-02-28T03:29:29;24.33;;;15.18;;
70545;SDS011;58098;51.680;5.134;2024-02-28T03:31:55;25.53;;;16.20;;
70545;SDS011;58098;51.680;5.134;2024-02-28T03:34:20;27.33;;;16.20;;
70545;SDS011;58098;51.680;5.134;2024-02-28T03:36:45;26.03;;;16.97;;
70545;SDS011;58098;51.680;5.134;2024-02-28T03:39:11;34.13;;;18.03;;
70545;SDS011;58098;51.680;5.134;2024-02-28T03:41:37;33.00;;;18.83;;
70545;SDS011;58098;51.680;5.134;2024-02-28T03:44:03;27.17;;;16.33;;
70545;SDS011;58098;51.680;5.134;2024-02-28T03:46:28;28.80;;;17.80;;
70545;SDS011;58098;51.680;5.134;2024-02-28T03:48:54;30.87;;;18.00;;
70545;SDS011;58098;51.680;5.134;2024-02-28T03:51:19;26.97;;;17.10;;
70545;SDS011;58098;51.680;5.134;2024-02-28T03:53:44;27.47;;;17.40;;
70545;SDS011;58098;51.680;5.134;2024-02-28T03:56:10;31.98;;;19.13;;
70545;SDS011;58098;51.680;5.134;2024-02-28T03:58:36;27.70;;;18.00;;
70545;SDS011;58098;51.680;5.134;2024-02-28T04:01:02;32.17;;;18.77;;
70545;SDS011;58098;51.680;5.134;2024-02-28T04:03:27;27.27;;;17.90;;
70545;SDS011;58098;51.680;5.134;2024-02-28T04:05:52;32.50;;;18.50;;
70545;SDS011;58098;51.680;5.134;2024-02-28T04:08:18;31.20;;;18.47;;
70545;SDS011;58098;51.680;5.134;2024-02-28T04:10:43;30.73;;;18.30;;
70545;SDS011;58098;51.680;5.134;2024-02-28T04:13:08;38.57;;;21.87;;
70545;SDS011;58098;51.680;5.134;2024-02-28T04:15:34;38.67;;;19.80;;
70545;SDS011;58098;51.680;5.134;2024-02-28T04:17:59;33.77;;;20.07;;
70545;SDS011;58098;51.680;5.134;2024-02-28T04:20:25;29.43;;;17.90;;
70545;SDS011;58098;51.680;5.134;2024-02-28T04:22:50;35.13;;;19.63;;
70545;SDS011;58098;51.680;5.134;2024-02-28T04:25:15;30.25;;;19.17;;
70545;SDS011;58098;51.680;5.134;2024-02-28T04:27:41;30.37;;;17.30;;
70545;SDS011;58098;51.680;5.134;2024-02-28T04:30:06;35.83;;;21.03;;
70545;SDS011;58098;51.680;5.134;2024-02-28T04:32:32;32.33;;;19.93;;
70545;SDS011;58098;51.680;5.134;2024-02-28T04:34:57;29.50;;;18.03;;
70545;SDS011;58098;51.680;5.134;2024-02-28T04:37:22;40.13;;;21.57;;
70545;SDS011;58098;51.680;5.134;2024-02-28T04:39:48;33.72;;;19.02;;
70545;SDS011;58098;51.680;5.134;2024-02-28T04:42:13;34.80;;;21.80;;
70545;SDS011;58098;51.680;5.134;2024-02-28T04:44:39;28.40;;;18.25;;
70545;SDS011;58098;51.680;5.134;2024-02-28T04:47:05;33.50;;;20.33;;
70545;SDS011;58098;51.680;5.134;2024-02-28T04:49:30;36.77;;;21.63;;
70545;SDS011;58098;51.680;5.134;2024-02-28T04:51:56;38.90;;;22.02;;
70545;SDS011;58098;51.680;5.134;2024-02-28T04:54:21;36.40;;;21.37;;
70545;SDS011;58098;51.680;5.134;2024-02-28T04:56:46;42.83;;;22.77;;
70545;SDS011;58098;51.680;5.134;2024-02-28T04:59:12;41.60;;;22.40;;
70545;SDS011;58098;51.680;5.134;2024-02-28T05:01:37;42.53;;;21.80;;
70545;SDS011;58098;51.680;5.134;2024-02-28T05:04:07;37.08;;;21.98;;
70545;SDS011;58098;51.680;5.134;2024-02-28T05:06:33;37.95;;;22.95;;
70545;SDS011;58098;51.680;5.134;2024-02-28T05:08:59;45.85;;;22.30;;
70545;SDS011;58098;51.680;5.134;2024-02-28T05:11:24;42.47;;;24.17;;
70545;SDS011;58098;51.680;5.134;2024-02-28T05:13:49;43.07;;;24.23;;
70545;SDS011;58098;51.680;5.134;2024-02-28T05:16:15;40.93;;;24.87;;
70545;SDS011;58098;51.680;5.134;2024-02-28T05:18:41;40.65;;;23.50;;
70545;SDS011;58098;51.680;5.134;2024-02-28T05:21:06;43.10;;;23.77;;
70545;SDS011;58098;51.680;5.134;2024-02-28T05:23:31;40.60;;;24.23;;
70545;SDS011;58098;51.680;5.134;2024-02-28T05:25:57;41.23;;;22.00;;
70545;SDS011;58098;51.680;5.134;2024-02-28T05:28:23;44.25;;;23.42;;
70545;SDS011;58098;51.680;5.134;2024-02-28T05:30:49;34.27;;;21.43;;
70545;SDS011;58098;51.680;5.134;2024-02-28T05:33:14;44.80;;;23.48;;
70545;SDS011;58098;51.680;5.134;2024-02-28T05:35:40;43.90;;;23.50;;
70545;SDS011;58098;51.680;5.134;2024-02-28T05:38:05;41.22;;;23.33;;
70545;SDS011;58098;51.680;5.134;2024-02-28T05:40:31;40.57;;;22.30;;
70545;SDS011;58098;51.680;5.134;2024-02-28T05:42:56;43.13;;;22.20;;
70545;SDS011;58098;51.680;5.134;2024-02-28T05:45:22;34.40;;;20.83;;
70545;SDS011;58098;51.680;5.134;2024-02-28T05:47:47;34.03;;;20.87;;
70545;SDS011;58098;51.680;5.134;2024-02-28T05:50:12;40.23;;;20.60;;
70545;SDS011;58098;51.680;5.134;2024-02-28T05:52:41;33.05;;;19.48;;
70545;SDS011;58098;51.680;5.134;2024-02-28T05:55:07;40.05;;;20.85;;
70545;SDS011;58098;51.680;5.134;2024-02-28T05:57:32;44.23;;;23.20;;
70545;SDS011;58098;51.680;5.134;2024-02-28T05:59:58;32.00;;;18.80;;
70545;SDS011;58098;51.680;5.134;2024-02-28T06:02:23;39.95;;;20.83;;
70545;SDS011;58098;51.680;5.134;2024-02-28T06:04:49;38.87;;;21.47;;
70545;SDS011;58098;51.680;5.134;2024-02-28T06:07:14;38.17;;;20.43;;
70545;SDS011;58098;51.680;5.134;2024-02-28T06:09:39;39.30;;;21.00;;
70545;SDS011;58098;51.680;5.134;2024-02-28T06:12:05;31.53;;;19.47;;
70545;SDS011;58098;51.680;5.134;2024-02-28T06:14:30;35.90;;;20.30;;
70545;SDS011;58098;51.680;5.134;2024-02-28T06:16:56;38.00;;;22.13;;
70545;SDS011;58098;51.680;5.134;2024-02-28T06:19:21;42.23;;;22.10;;
70545;SDS011;58098;51.680;5.134;2024-02-28T06:21:46;43.27;;;23.03;;
70545;SDS011;58098;51.680;5.134;2024-02-28T06:24:11;43.20;;;23.43;;
70545;SDS011;58098;51.680;5.134;2024-02-28T06:26:37;48.77;;;24.50;;
70545;SDS011;58098;51.680;5.134;2024-02-28T06:29:02;48.43;;;25.77;;
70545;SDS011;58098;51.680;5.134;2024-02-28T06:31:29;42.97;;;24.50;;
70545;SDS011;58098;51.680;5.134;2024-02-28T06:33:56;43.90;;;25.02;;
70545;SDS011;58098;51.680;5.134;2024-02-28T06:36:21;42.87;;;22.77;;
70545;SDS011;58098;51.680;5.134;2024-02-28T06:38:47;45.43;;;23.87;;
70545;SDS011;58098;51.680;5.134;2024-02-28T06:41:12;46.60;;;24.63;;
70545;SDS011;58098;51.680;5.134;2024-02-28T06:43:37;44.10;;;24.73;;
70545;SDS011;58098;51.680;5.134;2024-02-28T06:46:03;47.80;;;25.07;;
70545;SDS011;58098;51.680;5.134;2024-02-28T06:48:29;50.90;;;25.45;;
70545;SDS011;58098;51.680;5.134;2024-02-28T06:50:57;53.77;;;26.30;;
70545;SDS011;58098;51.680;5.134;2024-02-28T06:53:22;46.40;;;25.05;;
70545;SDS011;58098;51.680;5.134;2024-02-28T06:55:48;49.60;;;25.63;;
70545;SDS011;58098;51.680;5.134;2024-02-28T06:58:14;52.03;;;25.73;;
70545;SDS011;58098;51.680;5.134;2024-02-28T07:00:39;52.00;;;26.25;;
70545;SDS011;58098;51.680;5.134;2024-02-28T07:03:05;51.93;;;25.60;;
70545;SDS011;58098;51.680;5.134;2024-02-28T07:05:31;55.95;;;26.88;;
70545;SDS011;58098;51.680;5.134;2024-02-28T07:07:56;48.30;;;26.90;;
70545;SDS011;58098;51.680;5.134;2024-02-28T07:10:21;48.80;;;25.87;;
70545;SDS011;58098;51.680;5.134;2024-02-28T07:12:48;46.05;;;26.42;;
70545;SDS011;58098;51.680;5.134;2024-02-28T07:15:13;49.07;;;26.00;;
70545;SDS011;58098;51.680;5.134;2024-02-28T07:17:39;46.70;;;25.67;;
70545;SDS011;58098;51.680;5.134;2024-02-28T07:20:04;53.23;;;27.50;;
70545;SDS011;58098;51.680;5.134;2024-02-28T07:22:30;55.13;;;26.63;;
70545;SDS011;58098;51.680;5.134;2024-02-28T07:24:55;46.37;;;26.27;;
70545;SDS011;58098;51.680;5.134;2024-02-28T07:27:23;51.90;;;25.57;;
70545;SDS011;58098;51.680;5.134;2024-02-28T07:29:49;46.33;;;26.50;;
70545;SDS011;58098;51.680;5.134;2024-02-28T07:32:14;51.97;;;26.40;;
70545;SDS011;58098;51.680;5.134;2024-02-28T07:34:40;47.13;;;26.57;;
70545;SDS011;58098;51.680;5.134;2024-02-28T07:37:05;46.57;;;25.20;;
70545;SDS011;58098;51.680;5.134;2024-02-28T07:39:30;49.60;;;26.93;;
70545;SDS011;58098;51.680;5.134;2024-02-28T07:41:55;46.75;;;26.23;;
70545;SDS011;58098;51.680;5.134;2024-02-28T07:44:21;48.73;;;25.27;;
70545;SDS011;58098;51.680;5.134;2024-02-28T07:46:46;48.40;;;26.87;;
70545;SDS011;58098;51.680;5.134;2024-02-28T07:49:12;50.70;;;26.20;;
70545;SDS011;58098;51.680;5.134;2024-02-28T07:51:38;44.78;;;25.52;;
70545;SDS011;58098;51.680;5.134;2024-02-28T07:54:05;54.08;;;28.85;;
70545;SDS011;58098;51.680;5.134;2024-02-28T07:56:30;46.77;;;24.63;;
70545;SDS011;58098;51.680;5.134;2024-02-28T07:58:56;49.07;;;25.10;;
70545;SDS011;58098;51.680;5.134;2024-02-28T08:01:21;51.07;;;25.10;;
70545;SDS011;58098;51.680;5.134;2024-02-28T08:03:47;49.70;;;25.17;;
70545;SDS011;58098;51.680;5.134;2024-02-28T08:06:12;50.67;;;26.03;;
70545;SDS011;58098;51.680;5.134;2024-02-28T08:08:37;45.73;;;25.13;;
70545;SDS011;58098;51.680;5.134;2024-02-28T08:11:03;43.00;;;24.00;;
70545;SDS011;58098;51.680;5.134;2024-02-28T08:13:28;43.03;;;23.47;;
70545;SDS011;58098;51.680;5.134;2024-02-28T08:15:54;42.13;;;24.25;;
70545;SDS011;58098;51.680;5.134;2024-02-28T08:18:20;47.13;;;25.07;;
70545;SDS011;58098;51.680;5.134;2024-02-28T08:20:45;45.83;;;26.33;;
70545;SDS011;58098;51.680;5.134;2024-02-28T08:23:10;49.70;;;25.20;;
70545;SDS011;58098;51.680;5.134;2024-02-28T08:25:36;43.50;;;25.53;;
70545;SDS011;58098;51.680;5.134;2024-02-28T08:28:02;47.75;;;26.65;;
70545;SDS011;58098;51.680;5.134;2024-02-28T08:30:28;45.90;;;24.63;;
70545;SDS011;58098;51.680;5.134;2024-02-28T08:32:53;44.60;;;25.13;;
70545;SDS011;58098;51.680;5.134;2024-02-28T08:35:19;42.20;;;24.13;;
70545;SDS011;58098;51.680;5.134;2024-02-28T08:37:47;49.33;;;24.30;;
70545;SDS011;58098;51.680;5.134;2024-02-28T08:40:13;43.10;;;23.05;;
70545;SDS011;58098;51.680;5.134;2024-02-28T08:42:38;47.47;;;25.13;;
70545;SDS011;58098;51.680;5.134;2024-02-28T08:45:03;44.05;;;24.35;;
70545;SDS011;58098;51.680;5.134;2024-02-28T08:47:31;46.50;;;23.37;;
70545;SDS011;58098;51.680;5.134;2024-02-28T08:49:56;46.00;;;23.77;;
70545;SDS011;58098;51.680;5.134;2024-02-28T08:52:22;46.07;;;24.13;;
70545;SDS011;58098;51.680;5.134;2024-02-28T08:54:47;43.33;;;23.40;;
70545;SDS011;58098;51.680;5.134;2024-02-28T08:57:13;44.17;;;23.10;;
70545;SDS011;58098;51.680;5.134;2024-02-28T08:59:39;42.73;;;23.60;;
70545;SDS011;58098;51.680;5.134;2024-02-28T09:02:05;44.03;;;23.75;;
70545;SDS011;58098;51.680;5.134;2024-02-28T09:04:31;43.55;;;22.20;;
70545;SDS011;58098;51.680;5.134;2024-02-28T09:06:56;40.73;;;22.80;;
70545;SDS011;58098;51.680;5.134;2024-02-28T09:09:22;41.17;;;22.07;;
70545;SDS011;58098;51.680;5.134;2024-02-28T09:11:47;43.38;;;22.65;;
70545;SDS011;58098;51.680;5.134;2024-02-28T09:14:12;43.17;;;23.50;;
70545;SDS011;58098;51.680;5.134;2024-02-28T09:16:38;41.03;;;21.57;;
70545;SDS011;58098;51.680;5.134;2024-02-28T09:19:03;44.70;;;22.97;;
70545;SDS011;58098;51.680;5.134;2024-02-28T09:21:30;41.97;;;22.63;;
70545;SDS011;58098;51.680;5.134;2024-02-28T09:23:55;40.23;;;22.23;;
70545;SDS011;58098;51.680;5.134;2024-02-28T09:26:20;42.13;;;22.80;;
70545;SDS011;58098;51.680;5.134;2024-02-28T09:28:46;42.63;;;21.30;;
70545;SDS011;58098;51.680;5.134;2024-02-28T09:31:11;40.70;;;21.20;;
70545;SDS011;58098;51.680;5.134;2024-02-28T09:33:37;43.07;;;21.40;;
70545;SDS011;58098;51.680;5.134;2024-02-28T09:36:02;48.60;;;23.03;;
70545;SDS011;58098;51.680;5.134;2024-02-28T09:38:29;40.25;;;21.58;;
70545;SDS011;58098;51.680;5.134;2024-02-28T09:40:54;44.53;;;22.17;;
70545;SDS011;58098;51.680;5.134;2024-02-28T09:43:30;42.33;;;22.20;;
70545;SDS011;58098;51.680;5.134;2024-02-28T09:46:03;43.90;;;21.25;;
70545;SDS011;58098;51.680;5.134;2024-02-28T09:48:29;37.43;;;20.73;;
70545;SDS011;58098;51.680;5.134;2024-02-28T09:50:55;37.17;;;19.70;;
70545;SDS011;58098;51.680;5.134;2024-02-28T09:53:22;39.53;;;20.83;;
70545;SDS011;58098;51.680;5.134;2024-02-28T09:55:48;41.03;;;22.20;;
70545;SDS011;58098;51.680;5.134;2024-02-28T09:58:14;41.58;;;21.45;;
70545;SDS011;58098;51.680;5.134;2024-02-28T10:00:41;38.70;;;20.80;;
70545;SDS011;58098;51.680;5.134;2024-02-28T10:03:09;38.35;;;20.77;;
70545;SDS011;58098;51.680;5.134;2024-02-28T10:05:37;39.22;;;20.55;;
70545;SDS011;58098;51.680;5.134;2024-02-28T10:08:04;40.47;;;21.48;;
70545;SDS011;58098;51.680;5.134;2024-02-28T10:10:30;35.63;;;20.90;;
70545;SDS011;58098;51.680;5.134;2024-02-28T10:12:56;36.72;;;19.73;;
70545;SDS011;58098;51.680;5.134;2024-02-28T10:15:22;36.40;;;19.80;;
70545;SDS011;58098;51.680;5.134;2024-02-28T10:17:47;33.53;;;18.27;;
70545;SDS011;58098;51.680;5.134;2024-02-28T10:20:13;41.15;;;20.75;;
70545;SDS011;58098;51.680;5.134;2024-02-28T10:22:39;40.83;;;20.03;;
70545;SDS011;58098;51.680;5.134;2024-02-28T10:25:05;40.53;;;19.20;;
70545;SDS011;58098;51.680;5.134;2024-02-28T10:27:33;38.58;;;19.58;;
70545;SDS011;58098;51.680;5.134;2024-02-28T10:29:59;37.53;;;19.10;;
70545;SDS011;58098;51.680;5.134;2024-02-28T10:32:26;41.63;;;20.23;;
70545;SDS011;58098;51.680;5.134;2024-02-28T10:34:51;38.10;;;20.10;;
70545;SDS011;58098;51.680;5.134;2024-02-28T10:37:18;39.03;;;20.67;;
70545;SDS011;58098;51.680;5.134;2024-02-28T10:39:45;41.43;;;20.77;;
70545;SDS011;58098;51.680;5.134;2024-02-28T10:42:12;38.78;;;19.52;;
70545;SDS011;58098;51.680;5.134;2024-02-28T10:44:38;35.00;;;18.90;;
70545;SDS011;58098;51.680;5.134;2024-02-28T10:47:04;33.20;;;19.73;;
70545;SDS011;58098;51.680;5.134;2024-02-28T10:49:33;36.00;;;20.13;;
70545;SDS011;58098;51.680;5.134;2024-02-28T10:51:58;39.73;;;20.53;;
70545;SDS011;58098;51.680;5.134;2024-02-28T10:54:24;36.43;;;18.53;;
70545;SDS011;58098;51.680;5.134;2024-02-28T10:56:53;39.03;;;20.98;;
70545;SDS011;58098;51.680;5.134;2024-02-28T10:59:19;34.13;;;19.37;;
70545;SDS011;58098;51.680;5.134;2024-02-28T11:01:48;40.00;;;20.63;;
70545;SDS011;58098;51.680;5.134;2024-02-28T11:04:15;35.63;;;18.87;;
70545;SDS011;58098;51.680;5.134;2024-02-28T11:06:48;40.87;;;20.50;;
70545;SDS011;58098;51.680;5.134;2024-02-28T11:09:19;37.95;;;20.08;;
70545;SDS011;58098;51.680;5.134;2024-02-28T11:11:47;39.47;;;20.13;;
70545;SDS011;58098;51.680;5.134;2024-02-28T11:14:16;37.67;;;21.00;;
70545;SDS011;58098;51.680;5.134;2024-02-28T11:16:42;40.47;;;21.33;;
70545;SDS011;58098;51.680;5.134;2024-02-28T11:19:18;42.90;;;21.58;;
70545;SDS011;58098;51.680;5.134;2024-02-28T11:21:54;41.85;;;22.67;;
70545;SDS011;58098;51.680;5.134;2024-02-28T11:24:22;40.28;;;20.00;;
70545;SDS011;58098;51.680;5.134;2024-02-28T11:26:49;42.20;;;21.17;;
70545;SDS011;58098;51.680;5.134;2024-02-28T11:29:16;38.22;;;18.60;;
70545;SDS011;58098;51.680;5.134;2024-02-28T11:31:41;38.83;;;21.40;;
70545;SDS011;58098;51.680;5.134;2024-02-28T11:34:06;42.20;;;21.00;;
70545;SDS011;58098;51.680;5.134;2024-02-28T11:36:32;36.60;;;20.60;;
70545;SDS011;58098;51.680;5.134;2024-02-28T11:38:57;39.10;;;19.40;;
70545;SDS011;58098;51.680;5.134;2024-02-28T11:41:26;40.83;;;20.00;;
70545;SDS011;58098;51.680;5.134;2024-02-28T11:43:54;42.25;;;20.50;;
70545;SDS011;58098;51.680;5.134;2024-02-28T11:46:20;39.87;;;20.23;;
70545;SDS011;58098;51.680;5.134;2024-02-28T11:48:45;40.07;;;19.87;;
70545;SDS011;58098;51.680;5.134;2024-02-28T11:51:11;35.33;;;18.13;;
70545;SDS011;58098;51.680;5.134;2024-02-28T11:53:36;37.30;;;17.67;;
70545;SDS011;58098;51.680;5.134;2024-02-28T11:56:01;39.50;;;19.57;;
70545;SDS011;58098;51.680;5.134;2024-02-28T11:58:28;40.88;;;19.52;;
70545;SDS011;58098;51.680;5.134;2024-02-28T12:00:53;32.33;;;17.90;;
70545;SDS011;58098;51.680;5.134;2024-02-28T12:03:19;30.97;;;16.77;;
70545;SDS011;58098;51.680;5.134;2024-02-28T12:05:48;32.08;;;16.30;;
70545;SDS011;58098;51.680;5.134;2024-02-28T12:08:15;33.30;;;18.00;;
70545;SDS011;58098;51.680;5.134;2024-02-28T12:10:43;34.63;;;18.37;;
70545;SDS011;58098;51.680;5.134;2024-02-28T12:13:09;27.35;;;15.10;;
70545;SDS011;58098;51.680;5.134;2024-02-28T12:15:34;30.33;;;15.90;;
70545;SDS011;58098;51.680;5.134;2024-02-28T12:18:06;28.98;;;15.70;;
70545;SDS011;58098;51.680;5.134;2024-02-28T12:20:33;27.50;;;16.35;;
70545;SDS011;58098;51.680;5.134;2024-02-28T12:22:58;29.63;;;16.97;;
70545;SDS011;58098;51.680;5.134;2024-02-28T12:25:23;24.77;;;14.07;;
70545;SDS011;58098;51.680;5.134;2024-02-28T12:27:49;28.07;;;15.67;;
70545;SDS011;58098;51.680;5.134;2024-02-28T12:30:14;25.97;;;15.87;;
70545;SDS011;58098;51.680;5.134;2024-02-28T12:32:40;26.10;;;15.30;;
70545;SDS011;58098;51.680;5.134;2024-02-28T12:35:09;26.38;;;15.73;;
70545;SDS011;58098;51.680;5.134;2024-02-28T12:37:34;26.98;;;16.17;;
70545;SDS011;58098;51.680;5.134;2024-02-28T12:40:00;26.87;;;15.47;;
70545;SDS011;58098;51.680;5.134;2024-02-28T12:42:25;29.50;;;16.43;;
70545;SDS011;58098;51.680;5.134;2024-02-28T12:44:50;28.40;;;15.50;;
70545;SDS011;58098;51.680;5.134;2024-02-28T12:47:16;27.90;;;17.05;;
70545;SDS011;58098;51.680;5.134;2024-02-28T12:49:41;31.60;;;16.70;;
70545;SDS011;58098;51.680;5.134;2024-02-28T12:52:07;27.77;;;16.17;;
70545;SDS011;58098;51.680;5.134;2024-02-28T12:54:32;26.37;;;15.57;;
70545;SDS011;58098;51.680;5.134;2024-02-28T12:56:57;27.97;;;16.10;;
70545;SDS011;58098;51.680;5.134;2024-02-28T12:59:24;24.67;;;14.68;;
70545;SDS011;58098;51.680;5.134;2024-02-28T13:01:50;31.33;;;17.17;;
70545;SDS011;58098;51.680;5.134;2024-02-28T13:04:16;30.90;;;16.97;;
70545;SDS011;58098;51.680;5.134;2024-02-28T13:06:41;30.20;;;16.83;;
70545;SDS011;58098;51.680;5.134;2024-02-28T13:09:07;35.50;;;18.70;;
70545;SDS011;58098;51.680;5.134;2024-02-28T13:11:37;31.33;;;17.60;;
70545;SDS011;58098;51.680;5.134;2024-02-28T13:14:02;30.70;;;17.97;;
70545;SDS011;58098;51.680;5.134;2024-02-28T13:16:28;35.58;;;19.40;;
70545;SDS011;58098;51.680;5.134;2024-02-28T13:18:53;34.17;;;17.93;;
70545;SDS011;58098;51.680;5.134;2024-02-28T13:21:19;32.90;;;17.00;;
70545;SDS011;58098;51.680;5.134;2024-02-28T13:23:44;28.43;;;15.07;;
70545;SDS011;58098;51.680;5.134;2024-02-28T13:26:09;32.43;;;16.90;;
70545;SDS011;58098;51.680;5.134;2024-02-28T13:28:42;32.75;;;17.38;;
70545;SDS011;58098;51.680;5.134;2024-02-28T13:31:07;31.60;;;17.77;;
70545;SDS011;58098;51.680;5.134;2024-02-28T13:33:34;32.08;;;17.15;;
70545;SDS011;58098;51.680;5.134;2024-02-28T13:36:02;30.70;;;16.63;;
70545;SDS011;58098;51.680;5.134;2024-02-28T13:38:27;29.77;;;16.47;;
70545;SDS011;58098;51.680;5.134;2024-02-28T13:40:53;30.70;;;15.63;;
70545;SDS011;58098;51.680;5.134;2024-02-28T13:43:18;30.05;;;16.88;;
70545;SDS011;58098;51.680;5.134;2024-02-28T13:45:47;28.20;;;15.40;;
70545;SDS011;58098;51.680;5.134;2024-02-28T13:48:17;29.95;;;15.38;;
70545;SDS011;58098;51.680;5.134;2024-02-28T13:50:45;29.50;;;16.07;;
70545;SDS011;58098;51.680;5.134;2024-02-28T13:53:12;32.05;;;16.48;;
70545;SDS011;58098;51.680;5.134;2024-02-28T13:55:37;28.90;;;16.02;;
70545;SDS011;58098;51.680;5.134;2024-02-28T13:58:03;26.73;;;15.13;;
70545;SDS011;58098;51.680;5.134;2024-02-28T14:00:29;26.88;;;15.55;;
70545;SDS011;58098;51.680;5.134;2024-02-28T14:02:54;22.93;;;14.17;;
70545;SDS011;58098;51.680;5.134;2024-02-28T14:05:20;23.47;;;14.00;;
70545;SDS011;58098;51.680;5.134;2024-02-28T14:07:45;25.33;;;14.23;;
70545;SDS011;58098;51.680;5.134;2024-02-28T14:10:10;22.87;;;12.80;;
70545;SDS011;58098;51.680;5.134;2024-02-28T14:12:36;22.33;;;13.00;;